sensor_id;sensor_type;location;lat;lon;timestamp;temperature;humidity
51982;DHT22;37998;53.416;6.730;2024-03-25T00:01:56;7.00;99.90
51982;DHT22;37998;53.416;6.730;2024-03-25T00:04:23;7.00;99.90
51982;DHT22;37998;53.416;6.730;2024-03-25T00:06:50;7.00;99.90
51982;DHT22;37998;53.416;6.730;2024-03-25T00:09:17;7.00;99.90
51982;DHT22;37998;53.416;6.730;2024-03-25T00:11:44;7.00;99.90
51982;DHT22;37998;53.416;6.730;2024-03-25T00:14:12;7.00;99.90
51982;DHT22;37998;53.416;6.730;2024-03-25T00:16:39;7.00;99.90
51982;DHT22;37998;53.416;6.730;2024-03-25T00:19:05;7.00;99.90
51982;DHT22;37998;53.416;6.730;2024-03-25T00:21:32;7.00;99.90
51982;DHT22;37998;53.416;6.730;2024-03-25T00:23:58;7.10;99.90
51982;DHT22;37998;53.416;6.730;2024-03-25T00:26:26;7.10;99.90
51982;DHT22;37998;53.416;6.730;2024-03-25T00:28:53;7.10;99.90
51982;DHT22;37998;53.416;6.730;2024-03-25T00:31:19;7.10;99.90
51982;DHT22;37998;53.416;6.730;2024-03-25T00:33:46;7.10;99.90
51982;DHT22;37998;53.416;6.730;2024-03-25T00:36:13;7.00;99.90
51982;DHT22;37998;53.416;6.730;2024-03-25T00:38:42;7.00;99.90
51982;DHT22;37998;53.416;6.730;2024-03-25T00:41:09;7.00;99.90
51982;DHT22;37998;53.416;6.730;2024-03-25T00:43:36;7.00;99.90
51982;DHT22;37998;53.416;6.730;2024-03-25T00:46:03;7.00;99.90
51982;DHT22;37998;53.416;6.730;2024-03-25T00:48:30;7.00;99.90
51982;DHT22;37998;53.416;6.730;2024-03-25T00:50:58;7.10;99.90
51982;DHT22;37998;53.416;6.730;2024-03-25T00:53:24;7.10;99.90
51982;DHT22;37998;53.416;6.730;2024-03-25T00:55:51;7.00;99.90
51982;DHT22;37998;53.416;6.730;2024-03-25T00:58:18;7.10;99.90
51982;DHT22;37998;53.416;6.730;2024-03-25T01:00:45;7.00;99.90
51982;DHT22;37998;53.416;6.730;2024-03-25T01:03:11;7.00;99.90
51982;DHT22;37998;53.416;6.730;2024-03-25T01:05:38;7.00;99.90
51982;DHT22;37998;53.416;6.730;2024-03-25T01:08:04;7.00;99.90
51982;DHT22;37998;53.416;6.730;2024-03-25T01:10:31;7.00;99.90
51982;DHT22;37998;53.416;6.730;2024-03-25T01:12:57;7.00;99.90
51982;DHT22;37998;53.416;6.730;2024-03-25T01:15:27;7.00;99.90
51982;DHT22;37998;53.416;6.730;2024-03-25T01:17:56;7.00;99.90
51982;DHT22;37998;53.416;6.730;2024-03-25T01:20:22;7.00;99.90
51982;DHT22;37998;53.416;6.730;2024-03-25T01:22:49;7.00;99.90
51982;DHT22;37998;53.416;6.730;2024-03-25T01:25:16;7.00;99.90
51982;DHT22;37998;53.416;6.730;2024-03-25T01:27:43;7.00;99.90
51982;DHT22;37998;53.416;6.730;2024-03-25T01:30:10;7.00;99.90
51982;DHT22;37998;53.416;6.730;2024-03-25T01:32:36;7.00;99.90
51982;DHT22;37998;53.416;6.730;2024-03-25T01:35:03;7.00;99.90
51982;DHT22;37998;53.416;6.730;2024-03-25T01:37:32;7.00;99.90
51982;DHT22;37998;53.416;6.730;2024-03-25T01:39:58;7.00;99.90
51982;DHT22;37998;53.416;6.730;2024-03-25T01:42:25;7.00;99.90
51982;DHT22;37998;53.416;6.730;2024-03-25T01:44:51;7.30;99.90
51982;DHT22;37998;53.416;6.730;2024-03-25T01:47:17;7.00;99.90
51982;DHT22;37998;53.416;6.730;2024-03-25T01:49:44;7.10;99.90
51982;DHT22;37998;53.416;6.730;2024-03-25T01:52:10;6.40;99.90
51982;DHT22;37998;53.416;6.730;2024-03-25T01:54:37;7.10;99.90
51982;DHT22;37998;53.416;6.730;2024-03-25T01:57:04;7.10;99.90
51982;DHT22;37998;53.416;6.730;2024-03-25T01:59:31;7.10;99.90
51982;DHT22;37998;53.416;6.730;2024-03-25T02:01:57;7.10;99.90
51982;DHT22;37998;53.416;6.730;2024-03-25T02:04:24;7.10;99.90
51982;DHT22;37998;53.416;6.730;2024-03-25T02:06:51;7.10;99.90
51982;DHT22;37998;53.416;6.730;2024-03-25T02:09:18;7.10;99.90
51982;DHT22;37998;53.416;6.730;2024-03-25T02:11:45;7.10;99.90
51982;DHT22;37998;53.416;6.730;2024-03-25T02:14:12;7.10;99.90
51982;DHT22;37998;53.416;6.730;2024-03-25T02:16:38;7.00;99.90
51982;DHT22;37998;53.416;6.730;2024-03-25T02:19:05;6.90;99.90
51982;DHT22;37998;53.416;6.730;2024-03-25T02:21:32;7.00;99.90
51982;DHT22;37998;53.416;6.730;2024-03-25T02:24:00;6.90;99.90
51982;DHT22;37998;53.416;6.730;2024-03-25T02:26:29;7.00;99.90
51982;DHT22;37998;53.416;6.730;2024-03-25T02:28:56;7.00;99.90
51982;DHT22;37998;53.416;6.730;2024-03-25T02:31:22;7.00;99.90
51982;DHT22;37998;53.416;6.730;2024-03-25T02:33:49;7.00;99.90
51982;DHT22;37998;53.416;6.730;2024-03-25T02:36:16;7.00;99.90
51982;DHT22;37998;53.416;6.730;2024-03-25T02:38:43;7.00;99.90
51982;DHT22;37998;53.416;6.730;2024-03-25T02:41:10;7.00;99.90
51982;DHT22;37998;53.416;6.730;2024-03-25T02:43:36;7.00;99.90
51982;DHT22;37998;53.416;6.730;2024-03-25T02:46:02;7.00;99.90
51982;DHT22;37998;53.416;6.730;2024-03-25T02:48:28;7.00;99.90
51982;DHT22;37998;53.416;6.730;2024-03-25T02:50:54;7.00;99.90
51982;DHT22;37998;53.416;6.730;2024-03-25T02:53:20;6.90;99.90
51982;DHT22;37998;53.416;6.730;2024-03-25T02:55:46;7.00;99.90
51982;DHT22;37998;53.416;6.730;2024-03-25T02:58:12;6.90;99.90
51982;DHT22;37998;53.416;6.730;2024-03-25T03:00:38;6.90;99.90
51982;DHT22;37998;53.416;6.730;2024-03-25T03:03:04;6.90;99.90
51982;DHT22;37998;53.416;6.730;2024-03-25T03:05:30;6.90;99.90
51982;DHT22;37998;53.416;6.730;2024-03-25T03:07:56;6.90;99.90
51982;DHT22;37998;53.416;6.730;2024-03-25T03:10:22;6.90;99.90
51982;DHT22;37998;53.416;6.730;2024-03-25T03:12:48;6.90;99.90
51982;DHT22;37998;53.416;6.730;2024-03-25T03:15:14;6.90;99.90
51982;DHT22;37998;53.416;6.730;2024-03-25T03:17:41;6.90;99.90
51982;DHT22;37998;53.416;6.730;2024-03-25T03:20:07;6.90;99.90
51982;DHT22;37998;53.416;6.730;2024-03-25T03:22:33;6.90;99.90
51982;DHT22;37998;53.416;6.730;2024-03-25T03:24:59;7.00;99.90
51982;DHT22;37998;53.416;6.730;2024-03-25T03:27:25;7.00;99.90
51982;DHT22;37998;53.416;6.730;2024-03-25T03:29:50;6.90;99.90
51982;DHT22;37998;53.416;6.730;2024-03-25T03:32:16;6.90;99.90
51982;DHT22;37998;53.416;6.730;2024-03-25T03:34:42;6.90;99.90
51982;DHT22;37998;53.416;6.730;2024-03-25T03:37:08;6.90;99.90
51982;DHT22;37998;53.416;6.730;2024-03-25T03:39:34;6.90;99.90
51982;DHT22;37998;53.416;6.730;2024-03-25T03:42:00;6.90;99.90
51982;DHT22;37998;53.416;6.730;2024-03-25T03:44:26;6.90;99.90
51982;DHT22;37998;53.416;6.730;2024-03-25T03:46:52;6.90;99.90
51982;DHT22;37998;53.416;6.730;2024-03-25T03:49:18;6.90;99.90
51982;DHT22;37998;53.416;6.730;2024-03-25T03:51:44;6.80;99.90
51982;DHT22;37998;53.416;6.730;2024-03-25T03:54:10;6.90;99.90
51982;DHT22;37998;53.416;6.730;2024-03-25T03:56:41;6.90;99.90
51982;DHT22;37998;53.416;6.730;2024-03-25T03:59:07;6.90;99.90
51982;DHT22;37998;53.416;6.730;2024-03-25T04:01:33;6.80;99.90
51982;DHT22;37998;53.416;6.730;2024-03-25T04:03:59;6.90;99.90
51982;DHT22;37998;53.416;6.730;2024-03-25T04:06:25;6.80;99.90
51982;DHT22;37998;53.416;6.730;2024-03-25T04:08:51;6.80;99.90
51982;DHT22;37998;53.416;6.730;2024-03-25T04:11:17;6.80;99.90
51982;DHT22;37998;53.416;6.730;2024-03-25T04:13:43;6.90;99.90
51982;DHT22;37998;53.416;6.730;2024-03-25T04:16:09;6.80;99.90
51982;DHT22;37998;53.416;6.730;2024-03-25T04:18:35;6.80;99.90
51982;DHT22;37998;53.416;6.730;2024-03-25T04:21:01;6.80;99.90
51982;DHT22;37998;53.416;6.730;2024-03-25T04:23:27;6.90;99.90
51982;DHT22;37998;53.416;6.730;2024-03-25T04:25:53;6.80;99.90
51982;DHT22;37998;53.416;6.730;2024-03-25T04:28:19;6.90;99.90
51982;DHT22;37998;53.416;6.730;2024-03-25T04:30:53;6.90;99.90
51982;DHT22;37998;53.416;6.730;2024-03-25T04:33:19;6.90;99.90
51982;DHT22;37998;53.416;6.730;2024-03-25T04:35:46;6.90;99.90
51982;DHT22;37998;53.416;6.730;2024-03-25T04:38:12;6.90;99.90
51982;DHT22;37998;53.416;6.730;2024-03-25T04:40:39;6.90;99.90
51982;DHT22;37998;53.416;6.730;2024-03-25T04:43:05;6.90;99.90
51982;DHT22;37998;53.416;6.730;2024-03-25T04:45:32;6.90;99.90
51982;DHT22;37998;53.416;6.730;2024-03-25T04:47:58;6.80;99.90
51982;DHT22;37998;53.416;6.730;2024-03-25T04:50:24;6.80;99.90
51982;DHT22;37998;53.416;6.730;2024-03-25T04:52:50;6.80;99.90
51982;DHT22;37998;53.416;6.730;2024-03-25T04:55:16;6.80;99.90
51982;DHT22;37998;53.416;6.730;2024-03-25T04:57:42;6.80;99.90
51982;DHT22;37998;53.416;6.730;2024-03-25T05:00:08;6.80;99.90
51982;DHT22;37998;53.416;6.730;2024-03-25T05:02:38;6.70;99.90
51982;DHT22;37998;53.416;6.730;2024-03-25T05:05:04;6.80;99.90
51982;DHT22;37998;53.416;6.730;2024-03-25T05:07:34;6.80;99.90
51982;DHT22;37998;53.416;6.730;2024-03-25T05:10:00;6.80;99.90
51982;DHT22;37998;53.416;6.730;2024-03-25T05:12:26;6.70;99.90
51982;DHT22;37998;53.416;6.730;2024-03-25T05:14:56;6.70;99.90
51982;DHT22;37998;53.416;6.730;2024-03-25T05:17:22;6.70;99.90
51982;DHT22;37998;53.416;6.730;2024-03-25T05:19:48;6.70;99.90
51982;DHT22;37998;53.416;6.730;2024-03-25T05:22:15;6.60;99.90
51982;DHT22;37998;53.416;6.730;2024-03-25T05:24:41;6.50;99.90
51982;DHT22;37998;53.416;6.730;2024-03-25T05:27:08;6.50;99.90
51982;DHT22;37998;53.416;6.730;2024-03-25T05:29:33;6.50;99.90
51982;DHT22;37998;53.416;6.730;2024-03-25T05:32:01;6.40;99.90
51982;DHT22;37998;53.416;6.730;2024-03-25T05:34:28;6.40;99.90
51982;DHT22;37998;53.416;6.730;2024-03-25T05:36:56;6.40;99.90
51982;DHT22;37998;53.416;6.730;2024-03-25T05:39:23;6.40;99.90
51982;DHT22;37998;53.416;6.730;2024-03-25T05:41:49;6.40;99.90
51982;DHT22;37998;53.416;6.730;2024-03-25T05:44:17;6.40;99.90
51982;DHT22;37998;53.416;6.730;2024-03-25T05:46:44;6.40;99.90
51982;DHT22;37998;53.416;6.730;2024-03-25T05:49:10;6.40;99.90
51982;DHT22;37998;53.416;6.730;2024-03-25T05:51:36;6.40;99.90
51982;DHT22;37998;53.416;6.730;2024-03-25T05:54:04;6.40;99.90
51982;DHT22;37998;53.416;6.730;2024-03-25T05:56:30;6.50;99.90
51982;DHT22;37998;53.416;6.730;2024-03-25T05:58:57;6.40;99.90
51982;DHT22;37998;53.416;6.730;2024-03-25T06:01:23;6.30;99.90
51982;DHT22;37998;53.416;6.730;2024-03-25T06:03:49;6.30;99.90
51982;DHT22;37998;53.416;6.730;2024-03-25T06:06:15;6.20;99.90
51982;DHT22;37998;53.416;6.730;2024-03-25T06:08:41;6.40;99.90
51982;DHT22;37998;53.416;6.730;2024-03-25T06:11:07;6.20;99.90
51982;DHT22;37998;53.416;6.730;2024-03-25T06:13:33;6.30;99.90
51982;DHT22;37998;53.416;6.730;2024-03-25T06:15:59;6.30;99.90
51982;DHT22;37998;53.416;6.730;2024-03-25T06:18:25;6.30;99.90
51982;DHT22;37998;53.416;6.730;2024-03-25T06:20:51;6.40;99.90
51982;DHT22;37998;53.416;6.730;2024-03-25T06:23:26;6.40;99.90
51982;DHT22;37998;53.416;6.730;2024-03-25T06:25:53;6.40;99.90
51982;DHT22;37998;53.416;6.730;2024-03-25T06:28:20;6.40;99.90
51982;DHT22;37998;53.416;6.730;2024-03-25T06:30:46;6.50;99.90
51982;DHT22;37998;53.416;6.730;2024-03-25T06:33:39;6.50;99.90
51982;DHT22;37998;53.416;6.730;2024-03-25T06:36:23;6.60;99.90
51982;DHT22;37998;53.416;6.730;2024-03-25T06:38:49;6.60;99.90
51982;DHT22;37998;53.416;6.730;2024-03-25T06:41:15;6.60;99.90
51982;DHT22;37998;53.416;6.730;2024-03-25T06:43:41;6.60;99.90
51982;DHT22;37998;53.416;6.730;2024-03-25T06:46:07;6.70;99.90
51982;DHT22;37998;53.416;6.730;2024-03-25T06:48:34;6.70;99.90
51982;DHT22;37998;53.416;6.730;2024-03-25T06:51:00;6.60;99.90
51982;DHT22;37998;53.416;6.730;2024-03-25T06:53:28;6.60;99.90
51982;DHT22;37998;53.416;6.730;2024-03-25T06:55:55;6.60;99.90
51982;DHT22;37998;53.416;6.730;2024-03-25T06:58:23;6.60;99.90
51982;DHT22;37998;53.416;6.730;2024-03-25T07:00:49;6.60;99.90
51982;DHT22;37998;53.416;6.730;2024-03-25T07:03:16;6.70;99.90
51982;DHT22;37998;53.416;6.730;2024-03-25T07:05:47;6.80;99.90
51982;DHT22;37998;53.416;6.730;2024-03-25T07:08:14;6.90;99.90
51982;DHT22;37998;53.416;6.730;2024-03-25T07:10:44;6.90;99.90
51982;DHT22;37998;53.416;6.730;2024-03-25T07:13:11;6.90;99.90
51982;DHT22;37998;53.416;6.730;2024-03-25T07:15:38;7.10;99.90
51982;DHT22;37998;53.416;6.730;2024-03-25T07:18:05;7.10;99.90
51982;DHT22;37998;53.416;6.730;2024-03-25T07:20:32;7.20;99.90
51982;DHT22;37998;53.416;6.730;2024-03-25T07:23:00;7.20;99.90
51982;DHT22;37998;53.416;6.730;2024-03-25T07:25:26;7.30;99.90
51982;DHT22;37998;53.416;6.730;2024-03-25T07:27:52;7.20;99.90
51982;DHT22;37998;53.416;6.730;2024-03-25T07:30:19;7.20;99.90
51982;DHT22;37998;53.416;6.730;2024-03-25T07:32:45;7.10;99.90
51982;DHT22;37998;53.416;6.730;2024-03-25T07:35:11;7.20;99.90
51982;DHT22;37998;53.416;6.730;2024-03-25T07:37:37;7.10;99.90
51982;DHT22;37998;53.416;6.730;2024-03-25T07:40:06;7.10;99.90
51982;DHT22;37998;53.416;6.730;2024-03-25T07:42:32;7.20;99.90
51982;DHT22;37998;53.416;6.730;2024-03-25T07:44:58;7.30;99.90
51982;DHT22;37998;53.416;6.730;2024-03-25T07:47:24;7.20;99.90
51982;DHT22;37998;53.416;6.730;2024-03-25T07:49:50;7.30;99.90
51982;DHT22;37998;53.416;6.730;2024-03-25T07:52:16;7.30;99.90
51982;DHT22;37998;53.416;6.730;2024-03-25T07:54:42;7.40;99.90
51982;DHT22;37998;53.416;6.730;2024-03-25T07:57:08;7.50;99.90
51982;DHT22;37998;53.416;6.730;2024-03-25T07:59:35;7.50;99.90
51982;DHT22;37998;53.416;6.730;2024-03-25T08:02:00;7.60;99.90
51982;DHT22;37998;53.416;6.730;2024-03-25T08:04:29;7.70;99.90
51982;DHT22;37998;53.416;6.730;2024-03-25T08:06:55;7.80;99.90
51982;DHT22;37998;53.416;6.730;2024-03-25T08:09:20;7.90;99.90
51982;DHT22;37998;53.416;6.730;2024-03-25T08:11:46;7.90;99.90
51982;DHT22;37998;53.416;6.730;2024-03-25T08:14:12;8.00;99.90
51982;DHT22;37998;53.416;6.730;2024-03-25T08:16:38;8.10;99.90
51982;DHT22;37998;53.416;6.730;2024-03-25T08:19:04;8.10;99.90
51982;DHT22;37998;53.416;6.730;2024-03-25T08:21:32;8.10;99.90
51982;DHT22;37998;53.416;6.730;2024-03-25T08:23:58;8.20;99.90
51982;DHT22;37998;53.416;6.730;2024-03-25T08:26:24;8.20;99.90
51982;DHT22;37998;53.416;6.730;2024-03-25T08:28:50;8.20;99.90
51982;DHT22;37998;53.416;6.730;2024-03-25T08:31:16;8.20;99.90
51982;DHT22;37998;53.416;6.730;2024-03-25T08:33:42;8.20;99.90
51982;DHT22;37998;53.416;6.730;2024-03-25T08:36:08;8.30;99.90
51982;DHT22;37998;53.416;6.730;2024-03-25T08:38:34;8.40;99.90
51982;DHT22;37998;53.416;6.730;2024-03-25T08:41:01;8.50;99.90
51982;DHT22;37998;53.416;6.730;2024-03-25T08:43:26;8.60;99.90
51982;DHT22;37998;53.416;6.730;2024-03-25T08:45:52;8.70;99.90
51982;DHT22;37998;53.416;6.730;2024-03-25T08:48:18;8.90;99.90
51982;DHT22;37998;53.416;6.730;2024-03-25T08:50:44;8.80;99.90
51982;DHT22;37998;53.416;6.730;2024-03-25T08:53:12;8.80;99.90
51982;DHT22;37998;53.416;6.730;2024-03-25T08:55:43;8.80;99.90
51982;DHT22;37998;53.416;6.730;2024-03-25T08:58:09;8.90;99.90
51982;DHT22;37998;53.416;6.730;2024-03-25T09:00:35;8.80;99.90
51982;DHT22;37998;53.416;6.730;2024-03-25T09:03:01;8.80;99.90
51982;DHT22;37998;53.416;6.730;2024-03-25T09:05:27;8.90;99.90
51982;DHT22;37998;53.416;6.730;2024-03-25T09:07:52;9.00;99.90
51982;DHT22;37998;53.416;6.730;2024-03-25T09:10:18;8.90;99.90
51982;DHT22;37998;53.416;6.730;2024-03-25T09:13:03;8.90;99.90
51982;DHT22;37998;53.416;6.730;2024-03-25T09:15:30;8.90;99.90
51982;DHT22;37998;53.416;6.730;2024-03-25T09:17:56;8.90;99.90
51982;DHT22;37998;53.416;6.730;2024-03-25T09:20:22;9.00;99.90
51982;DHT22;37998;53.416;6.730;2024-03-25T09:22:48;9.00;99.90
51982;DHT22;37998;53.416;6.730;2024-03-25T09:25:15;9.00;99.90
51982;DHT22;37998;53.416;6.730;2024-03-25T09:27:45;8.80;99.90
51982;DHT22;37998;53.416;6.730;2024-03-25T09:30:12;8.80;99.90
51982;DHT22;37998;53.416;6.730;2024-03-25T09:32:38;8.70;99.90
51982;DHT22;37998;53.416;6.730;2024-03-25T09:35:04;8.60;99.90
51982;DHT22;37998;53.416;6.730;2024-03-25T09:37:31;8.50;99.90
51982;DHT22;37998;53.416;6.730;2024-03-25T09:39:58;8.40;99.90
51982;DHT22;37998;53.416;6.730;2024-03-25T09:42:27;8.40;99.90
51982;DHT22;37998;53.416;6.730;2024-03-25T09:44:54;8.30;99.90
51982;DHT22;37998;53.416;6.730;2024-03-25T09:47:22;8.20;99.90
51982;DHT22;37998;53.416;6.730;2024-03-25T09:49:50;8.30;99.90
51982;DHT22;37998;53.416;6.730;2024-03-25T09:52:18;8.20;99.90
51982;DHT22;37998;53.416;6.730;2024-03-25T09:54:44;8.20;99.90
51982;DHT22;37998;53.416;6.730;2024-03-25T09:57:10;8.10;99.90
51982;DHT22;37998;53.416;6.730;2024-03-25T09:59:39;8.10;99.90
51982;DHT22;37998;53.416;6.730;2024-03-25T10:02:05;8.10;99.90
51982;DHT22;37998;53.416;6.730;2024-03-25T10:04:32;8.00;99.90
51982;DHT22;37998;53.416;6.730;2024-03-25T10:06:59;7.90;99.90
51982;DHT22;37998;53.416;6.730;2024-03-25T10:09:25;7.80;99.90
51982;DHT22;37998;53.416;6.730;2024-03-25T10:11:53;7.80;99.90
51982;DHT22;37998;53.416;6.730;2024-03-25T10:14:21;8.00;99.90
51982;DHT22;37998;53.416;6.730;2024-03-25T10:16:50;8.10;99.90
51982;DHT22;37998;53.416;6.730;2024-03-25T10:19:16;8.10;99.90
51982;DHT22;37998;53.416;6.730;2024-03-25T10:21:42;8.10;99.90
51982;DHT22;37998;53.416;6.730;2024-03-25T10:24:08;8.20;99.90
51982;DHT22;37998;53.416;6.730;2024-03-25T10:26:34;8.10;99.90
51982;DHT22;37998;53.416;6.730;2024-03-25T10:29:04;8.10;99.90
51982;DHT22;37998;53.416;6.730;2024-03-25T10:31:32;8.20;99.90
51982;DHT22;37998;53.416;6.730;2024-03-25T10:33:59;8.40;99.90
51982;DHT22;37998;53.416;6.730;2024-03-25T10:36:25;8.50;99.90
51982;DHT22;37998;53.416;6.730;2024-03-25T10:39:02;8.50;99.90
51982;DHT22;37998;53.416;6.730;2024-03-25T10:41:29;8.60;99.90
51982;DHT22;37998;53.416;6.730;2024-03-25T10:43:59;8.60;99.90
51982;DHT22;37998;53.416;6.730;2024-03-25T10:46:26;8.60;99.90
51982;DHT22;37998;53.416;6.730;2024-03-25T10:49:16;8.70;99.90
51982;DHT22;37998;53.416;6.730;2024-03-25T10:51:43;8.80;99.90
51982;DHT22;37998;53.416;6.730;2024-03-25T10:54:11;8.80;99.90
51982;DHT22;37998;53.416;6.730;2024-03-25T10:56:38;9.00;99.90
51982;DHT22;37998;53.416;6.730;2024-03-25T10:59:05;9.10;99.90
51982;DHT22;37998;53.416;6.730;2024-03-25T11:01:35;9.10;99.90
51982;DHT22;37998;53.416;6.730;2024-03-25T11:04:01;9.00;99.90
51982;DHT22;37998;53.416;6.730;2024-03-25T11:06:27;9.00;99.90
51982;DHT22;37998;53.416;6.730;2024-03-25T11:08:58;9.10;99.90
51982;DHT22;37998;53.416;6.730;2024-03-25T11:11:23;9.10;99.90
51982;DHT22;37998;53.416;6.730;2024-03-25T11:13:49;9.10;99.90
51982;DHT22;37998;53.416;6.730;2024-03-25T11:16:30;8.90;99.90
51982;DHT22;37998;53.416;6.730;2024-03-25T11:19:00;9.00;99.90
51982;DHT22;37998;53.416;6.730;2024-03-25T11:21:28;9.10;99.90
51982;DHT22;37998;53.416;6.730;2024-03-25T11:23:54;9.20;99.90
51982;DHT22;37998;53.416;6.730;2024-03-25T11:26:24;9.30;99.90
51982;DHT22;37998;53.416;6.730;2024-03-25T11:28:51;9.30;99.90
51982;DHT22;37998;53.416;6.730;2024-03-25T11:31:21;9.50;99.90
51982;DHT22;37998;53.416;6.730;2024-03-25T11:33:50;9.50;99.90
51982;DHT22;37998;53.416;6.730;2024-03-25T11:36:16;9.60;99.90
51982;DHT22;37998;53.416;6.730;2024-03-25T11:38:44;9.60;99.90
51982;DHT22;37998;53.416;6.730;2024-03-25T11:41:10;9.70;99.90
51982;DHT22;37998;53.416;6.730;2024-03-25T11:43:37;9.80;99.90
51982;DHT22;37998;53.416;6.730;2024-03-25T11:46:04;9.90;99.90
51982;DHT22;37998;53.416;6.730;2024-03-25T11:48:32;10.00;99.90
51982;DHT22;37998;53.416;6.730;2024-03-25T11:50:59;10.00;99.90
51982;DHT22;37998;53.416;6.730;2024-03-25T11:53:29;9.80;99.90
51982;DHT22;37998;53.416;6.730;2024-03-25T11:55:55;9.80;99.90
51982;DHT22;37998;53.416;6.730;2024-03-25T11:58:21;9.90;99.90
51982;DHT22;37998;53.416;6.730;2024-03-25T12:00:47;10.00;99.90
51982;DHT22;37998;53.416;6.730;2024-03-25T12:03:20;10.10;99.90
51982;DHT22;37998;53.416;6.730;2024-03-25T12:05:46;10.10;99.90
51982;DHT22;37998;53.416;6.730;2024-03-25T12:08:12;10.20;99.90
51982;DHT22;37998;53.416;6.730;2024-03-25T12:10:39;10.20;99.90
51982;DHT22;37998;53.416;6.730;2024-03-25T12:13:25;10.20;99.90
51982;DHT22;37998;53.416;6.730;2024-03-25T12:15:52;10.00;99.90
51982;DHT22;37998;53.416;6.730;2024-03-25T12:18:20;10.00;99.90
51982;DHT22;37998;53.416;6.730;2024-03-25T12:20:47;10.00;99.90
51982;DHT22;37998;53.416;6.730;2024-03-25T12:23:13;10.00;99.90
51982;DHT22;37998;53.416;6.730;2024-03-25T12:25:39;10.10;99.90
51982;DHT22;37998;53.416;6.730;2024-03-25T12:28:10;10.00;99.90
51982;DHT22;37998;53.416;6.730;2024-03-25T12:30:53;10.00;99.90
51982;DHT22;37998;53.416;6.730;2024-03-25T12:33:24;9.80;99.90
51982;DHT22;37998;53.416;6.730;2024-03-25T12:35:52;10.00;99.90
51982;DHT22;37998;53.416;6.730;2024-03-25T12:38:33;9.90;99.90
51982;DHT22;37998;53.416;6.730;2024-03-25T12:41:07;9.90;99.90
51982;DHT22;37998;53.416;6.730;2024-03-25T12:43:34;9.90;99.90
51982;DHT22;37998;53.416;6.730;2024-03-25T12:46:01;10.00;99.90
51982;DHT22;37998;53.416;6.730;2024-03-25T12:48:29;10.00;99.90
51982;DHT22;37998;53.416;6.730;2024-03-25T12:50:55;10.00;99.90
51982;DHT22;37998;53.416;6.730;2024-03-25T12:53:21;9.80;99.90
51982;DHT22;37998;53.416;6.730;2024-03-25T12:55:47;9.70;99.90
51982;DHT22;37998;53.416;6.730;2024-03-25T12:58:14;9.80;99.90
51982;DHT22;37998;53.416;6.730;2024-03-25T13:00:40;9.80;99.90
51982;DHT22;37998;53.416;6.730;2024-03-25T13:03:07;9.80;99.90
51982;DHT22;37998;53.416;6.730;2024-03-25T13:05:34;9.80;99.90
51982;DHT22;37998;53.416;6.730;2024-03-25T13:08:03;9.90;99.90
51982;DHT22;37998;53.416;6.730;2024-03-25T13:10:29;10.00;99.90
51982;DHT22;37998;53.416;6.730;2024-03-25T13:12:56;10.00;99.90
51982;DHT22;37998;53.416;6.730;2024-03-25T13:15:22;10.00;99.90
51982;DHT22;37998;53.416;6.730;2024-03-25T13:17:48;10.00;99.90
51982;DHT22;37998;53.416;6.730;2024-03-25T13:20:14;10.00;99.90
51982;DHT22;37998;53.416;6.730;2024-03-25T13:22:40;9.90;99.90
51982;DHT22;37998;53.416;6.730;2024-03-25T13:25:07;9.80;99.90
51982;DHT22;37998;53.416;6.730;2024-03-25T13:27:33;9.80;99.90
51982;DHT22;37998;53.416;6.730;2024-03-25T13:29:59;9.70;99.90
51982;DHT22;37998;53.416;6.730;2024-03-25T13:32:25;9.60;99.90
51982;DHT22;37998;53.416;6.730;2024-03-25T13:34:51;9.60;99.90
51982;DHT22;37998;53.416;6.730;2024-03-25T13:37:20;9.60;99.90
51982;DHT22;37998;53.416;6.730;2024-03-25T13:39:46;9.50;99.90
51982;DHT22;37998;53.416;6.730;2024-03-25T13:42:12;9.50;99.90
51982;DHT22;37998;53.416;6.730;2024-03-25T13:44:38;9.50;99.90
51982;DHT22;37998;53.416;6.730;2024-03-25T13:47:04;9.60;99.90
51982;DHT22;37998;53.416;6.730;2024-03-25T13:49:29;9.60;99.90
51982;DHT22;37998;53.416;6.730;2024-03-25T13:51:58;9.60;99.90
51982;DHT22;37998;53.416;6.730;2024-03-25T13:54:28;9.50;99.90
51982;DHT22;37998;53.416;6.730;2024-03-25T13:56:55;9.50;99.90
51982;DHT22;37998;53.416;6.730;2024-03-25T13:59:21;9.50;99.90
51982;DHT22;37998;53.416;6.730;2024-03-25T14:01:47;9.50;99.90
51982;DHT22;37998;53.416;6.730;2024-03-25T14:04:13;9.40;99.90
51982;DHT22;37998;53.416;6.730;2024-03-25T14:06:39;9.50;99.90
51982;DHT22;37998;53.416;6.730;2024-03-25T14:09:06;9.60;99.90
51982;DHT22;37998;53.416;6.730;2024-03-25T14:11:35;9.50;99.90
51982;DHT22;37998;53.416;6.730;2024-03-25T14:14:01;9.60;99.90
51982;DHT22;37998;53.416;6.730;2024-03-25T14:16:30;9.70;99.90
51982;DHT22;37998;53.416;6.730;2024-03-25T14:18:56;9.70;99.90
51982;DHT22;37998;53.416;6.730;2024-03-25T14:21:22;9.70;99.90
51982;DHT22;37998;53.416;6.730;2024-03-25T14:23:48;9.70;99.90
51982;DHT22;37998;53.416;6.730;2024-03-25T14:26:14;9.70;99.90
51982;DHT22;37998;53.416;6.730;2024-03-25T14:28:43;9.70;99.90
51982;DHT22;37998;53.416;6.730;2024-03-25T14:31:09;9.70;99.90
51982;DHT22;37998;53.416;6.730;2024-03-25T14:33:35;9.70;99.90
51982;DHT22;37998;53.416;6.730;2024-03-25T14:36:01;9.80;99.90
51982;DHT22;37998;53.416;6.730;2024-03-25T14:38:27;9.80;99.90
51982;DHT22;37998;53.416;6.730;2024-03-25T14:40:53;9.80;99.90
51982;DHT22;37998;53.416;6.730;2024-03-25T14:43:22;9.80;99.90
51982;DHT22;37998;53.416;6.730;2024-03-25T14:45:51;9.80;99.90
51982;DHT22;37998;53.416;6.730;2024-03-25T14:48:17;9.80;99.90
51982;DHT22;37998;53.416;6.730;2024-03-25T14:50:43;9.70;99.90
51982;DHT22;37998;53.416;6.730;2024-03-25T14:53:09;9.70;99.90
51982;DHT22;37998;53.416;6.730;2024-03-25T14:55:34;9.70;99.90
51982;DHT22;37998;53.416;6.730;2024-03-25T14:58:00;9.70;99.90
51982;DHT22;37998;53.416;6.730;2024-03-25T15:00:26;9.70;99.90
51982;DHT22;37998;53.416;6.730;2024-03-25T15:02:52;9.80;99.90
51982;DHT22;37998;53.416;6.730;2024-03-25T15:05:18;9.80;99.90
51982;DHT22;37998;53.416;6.730;2024-03-25T15:07:44;9.80;99.90
51982;DHT22;37998;53.416;6.730;2024-03-25T15:10:11;9.80;99.90
51982;DHT22;37998;53.416;6.730;2024-03-25T15:12:37;9.70;99.90
51982;DHT22;37998;53.416;6.730;2024-03-25T15:15:04;9.60;99.90
51982;DHT22;37998;53.416;6.730;2024-03-25T15:17:35;9.60;99.90
51982;DHT22;37998;53.416;6.730;2024-03-25T15:20:03;9.60;99.90
51982;DHT22;37998;53.416;6.730;2024-03-25T15:22:30;9.50;99.90
51982;DHT22;37998;53.416;6.730;2024-03-25T15:24:56;9.60;99.90
51982;DHT22;37998;53.416;6.730;2024-03-25T15:27:22;9.60;99.90
51982;DHT22;37998;53.416;6.730;2024-03-25T15:29:49;9.50;99.90
51982;DHT22;37998;53.416;6.730;2024-03-25T15:32:15;9.50;99.90
51982;DHT22;37998;53.416;6.730;2024-03-25T15:34:41;9.50;99.90
51982;DHT22;37998;53.416;6.730;2024-03-25T15:37:08;9.50;99.90
51982;DHT22;37998;53.416;6.730;2024-03-25T15:39:35;9.50;99.90
51982;DHT22;37998;53.416;6.730;2024-03-25T15:42:02;9.50;99.90
51982;DHT22;37998;53.416;6.730;2024-03-25T15:44:30;9.50;99.90